createdAt,value
2023-01-15T00:02:23.824Z,0.22
2023-01-15T00:04:51.956Z,1.08
2023-01-15T00:07:18.819Z,0.22
2023-01-15T00:09:46.472Z,0.30
2023-01-15T00:12:13.351Z,0.98
2023-01-15T00:14:40.253Z,0.20
2023-01-15T00:17:07.126Z,0.00
2023-01-15T00:19:34.044Z,0.38
2023-01-15T00:22:00.983Z,0.95
2023-01-15T00:24:46.359Z,0.00
2023-01-15T00:27:32.067Z,0.63
2023-01-15T00:29:59.033Z,1.75
2023-01-15T00:32:27.904Z,0.30
2023-01-15T00:34:54.783Z,1.63
2023-01-15T00:37:21.985Z,1.35
2023-01-15T00:39:49.051Z,1.77
2023-01-15T00:42:17.771Z,0.77
2023-01-15T00:44:44.815Z,1.05
2023-01-15T00:47:15.047Z,1.23
2023-01-15T00:49:42.963Z,4.22
2023-01-15T00:52:10.719Z,2.83
2023-01-15T00:54:37.719Z,3.13
2023-01-15T00:57:04.717Z,4.00
2023-01-15T00:59:31.668Z,1.58
2023-01-15T01:01:58.792Z,2.47
2023-01-15T01:04:25.896Z,7.50
2023-01-15T01:06:52.993Z,4.32
2023-01-15T01:09:19.999Z,3.95
2023-01-15T01:11:46.915Z,1.92
2023-01-15T01:14:13.825Z,3.67
2023-01-15T01:16:42.136Z,1.73
2023-01-15T01:19:14.555Z,2.38
2023-01-15T01:21:43.229Z,2.75
2023-01-15T01:24:13.040Z,1.90
2023-01-15T01:26:40.441Z,4.38
2023-01-15T01:29:07.722Z,5.35
2023-01-15T01:31:34.677Z,4.60
2023-01-15T01:34:01.655Z,6.07
2023-01-15T01:36:36.897Z,3.72
2023-01-15T01:39:06.002Z,4.95
2023-01-15T01:41:33.596Z,5.80
2023-01-15T01:44:03.849Z,11.02
2023-01-15T01:46:36.532Z,4.30
2023-01-15T01:49:09.444Z,8.05
2023-01-15T01:51:41.330Z,0.95
2023-01-15T01:54:11.135Z,6.32
2023-01-15T01:56:38.506Z,4.43
2023-01-15T01:59:07.083Z,3.10
2023-01-15T02:01:34.880Z,4.57
2023-01-15T02:04:03.334Z,11.20
2023-01-15T02:06:30.933Z,7.65
2023-01-15T02:08:57.912Z,8.95
2023-01-15T02:11:25.170Z,6.78
2023-01-15T02:14:00.775Z,9.57
2023-01-15T02:16:30.408Z,7.70
2023-01-15T02:19:16.214Z,7.45
2023-01-15T02:21:43.025Z,13.98
2023-01-15T02:24:30.276Z,8.60
2023-01-15T02:27:12.108Z,8.90
2023-01-15T02:29:58.353Z,6.57
2023-01-15T02:32:59.286Z,6.80
2023-01-15T02:35:39.205Z,7.00
2023-01-15T02:38:09.364Z,3.67
2023-01-15T02:40:38.402Z,5.95
2023-01-15T02:43:08.118Z,7.75
2023-01-15T02:45:39.950Z,2.95
2023-01-15T02:48:13.106Z,7.85
2023-01-15T02:50:43.595Z,12.02
2023-01-15T02:53:16.396Z,5.25
2023-01-15T02:55:47.411Z,7.68
2023-01-15T02:58:20.769Z,10.60
2023-01-15T03:00:51.953Z,13.32
2023-01-15T03:03:29.825Z,10.15
2023-01-15T03:06:16.965Z,6.53
2023-01-15T03:08:44.250Z,8.73
2023-01-15T03:11:20.158Z,4.43
2023-01-15T03:14:05.269Z,2.50
2023-01-15T03:16:43.568Z,6.25
2023-01-15T03:19:27.290Z,12.48
2023-01-15T03:22:05.329Z,13.32
2023-01-15T03:25:03.112Z,10.15
2023-01-15T03:27:30.455Z,8.70
2023-01-15T03:30:08.167Z,9.32
2023-01-15T03:32:35.659Z,11.77
2023-01-15T03:35:04.202Z,5.18
2023-01-15T03:37:32.129Z,7.18
2023-01-15T03:39:59.915Z,6.78
2023-01-15T03:42:47.010Z,6.40
2023-01-15T03:45:21.701Z,9.13
2023-01-15T03:48:19.044Z,9.57
2023-01-15T03:51:13.976Z,2.30
2023-01-15T03:53:54.565Z,7.07
2023-01-15T03:56:37.306Z,6.72
2023-01-15T03:59:15.849Z,8.88
2023-01-15T04:01:44.437Z,12.15
2023-01-15T04:04:14.017Z,6.85
2023-01-15T04:06:43.592Z,10.80
2023-01-15T04:09:13.227Z,8.27
2023-01-15T04:11:40.473Z,9.90
2023-01-15T04:14:08.128Z,10.05
2023-01-15T04:16:35.137Z,11.32
2023-01-15T04:19:02.236Z,5.88
2023-01-15T04:21:29.270Z,7.28
2023-01-15T04:23:56.282Z,6.45
2023-01-15T04:26:23.479Z,11.35
2023-01-15T04:28:50.451Z,10.27
2023-01-15T04:31:17.854Z,11.63
2023-01-15T04:33:44.890Z,15.70
2023-01-15T04:36:11.942Z,13.40
2023-01-15T04:38:38.854Z,7.25
2023-01-15T04:41:29.284Z,13.13
2023-01-15T04:44:08.978Z,8.30
2023-01-15T04:46:42.120Z,7.55
2023-01-15T04:49:12.048Z,5.70
2023-01-15T04:51:39.907Z,9.88
2023-01-15T04:54:08.992Z,11.15
2023-01-15T04:56:41.914Z,6.90
2023-01-15T04:59:09.090Z,5.82
2023-01-15T05:01:36.773Z,7.97
2023-01-15T05:04:04.043Z,5.20
2023-01-15T05:06:33.864Z,7.85
2023-01-15T05:09:01.513Z,9.82
2023-01-15T05:11:29.050Z,10.60
2023-01-15T05:13:56.350Z,11.07
2023-01-15T05:16:25.543Z,12.60
2023-01-15T05:18:54.162Z,6.50
2023-01-15T05:21:22.876Z,6.10
2023-01-15T05:23:52.320Z,17.52
2023-01-15T05:26:20.201Z,4.43
2023-01-15T05:28:47.877Z,10.02
2023-01-15T05:31:19.272Z,7.75
2023-01-15T05:33:47.897Z,7.57
2023-01-15T05:36:18.200Z,11.30
2023-01-15T05:38:45.509Z,9.07
2023-01-15T05:41:34.150Z,14.05
2023-01-15T05:44:25.324Z,6.22
2023-01-15T05:46:55.101Z,11.18
2023-01-15T05:49:24.201Z,11.32
2023-01-15T05:51:52.108Z,6.28
2023-01-15T05:54:24.950Z,11.50
2023-01-15T05:56:52.877Z,6.78
2023-01-15T05:59:22.436Z,9.02
2023-01-15T06:01:49.633Z,5.93
2023-01-15T06:04:21.002Z,5.28
2023-01-15T06:06:49.758Z,6.45
2023-01-15T06:09:16.766Z,8.05
2023-01-15T06:11:43.808Z,9.02
2023-01-15T06:14:12.341Z,14.88
2023-01-15T06:16:41.273Z,6.57
2023-01-15T06:19:09.581Z,4.30
2023-01-15T06:21:36.573Z,5.68
2023-01-15T06:24:04.086Z,3.33
2023-01-15T06:26:31.262Z,9.15
2023-01-15T06:28:58.555Z,6.00
2023-01-15T06:31:28.741Z,5.43
2023-01-15T06:33:56.060Z,6.65
2023-01-15T06:36:26.807Z,4.43
2023-01-15T06:38:54.493Z,11.25
2023-01-15T06:41:42.131Z,4.70
2023-01-15T06:44:35.848Z,10.23
2023-01-15T06:47:24.105Z,9.13
2023-01-15T06:49:56.276Z,10.95
2023-01-15T06:52:24.574Z,11.02
2023-01-15T06:54:51.898Z,6.70
2023-01-15T06:57:19.049Z,6.97
2023-01-15T06:59:46.580Z,5.35
2023-01-15T07:02:13.491Z,6.53
2023-01-15T07:04:40.499Z,10.35
2023-01-15T07:07:07.474Z,7.00
2023-01-15T07:09:34.525Z,13.00
2023-01-15T07:12:01.450Z,6.35
2023-01-15T07:14:28.485Z,7.18
2023-01-15T07:16:56.070Z,3.10
2023-01-15T07:19:23.105Z,4.22
2023-01-15T07:21:50.111Z,4.57
2023-01-15T07:24:17.901Z,5.38
2023-01-15T07:26:46.014Z,10.23
2023-01-15T07:29:13.552Z,7.45
2023-01-15T07:31:41.519Z,6.50
2023-01-15T07:34:08.560Z,5.88
2023-01-15T07:36:36.936Z,3.92
2023-01-15T07:39:08.413Z,3.55
2023-01-15T07:41:54.102Z,5.20
2023-01-15T07:44:39.930Z,8.65
2023-01-15T07:47:34.468Z,8.73
2023-01-15T07:50:02.193Z,8.40
2023-01-15T07:52:29.097Z,6.47
2023-01-15T07:54:56.105Z,8.88
2023-01-15T07:57:23.437Z,10.93
2023-01-15T07:59:51.693Z,5.57
2023-01-15T08:02:19.086Z,6.85
2023-01-15T08:04:47.946Z,17.23
2023-01-15T08:07:15.967Z,7.65
2023-01-15T08:09:43.106Z,10.45
2023-01-15T08:12:29.895Z,6.20
2023-01-15T08:15:16.560Z,8.13
2023-01-15T08:20:17.404Z,5.32
2023-01-15T08:22:45.134Z,7.80
2023-01-15T08:25:14.856Z,8.10
2023-01-15T08:27:42.542Z,6.35
2023-01-15T08:30:13.694Z,4.03
2023-01-15T08:32:40.677Z,5.25
2023-01-15T08:35:08.163Z,6.15
2023-01-15T08:37:35.485Z,4.13
2023-01-15T08:40:02.475Z,3.13
2023-01-15T08:42:29.454Z,6.40
2023-01-15T08:44:56.440Z,3.90
2023-01-15T08:47:23.346Z,7.15
2023-01-15T08:49:50.328Z,7.70
2023-01-15T08:52:17.561Z,3.78
2023-01-15T08:54:44.618Z,8.77
2023-01-15T08:57:13.743Z,5.47
2023-01-15T08:59:43.485Z,4.93
2023-01-15T09:02:15.287Z,4.65
2023-01-15T09:04:42.438Z,7.13
2023-01-15T09:07:09.533Z,6.43
2023-01-15T09:09:36.602Z,6.18
2023-01-15T09:12:03.701Z,2.60
2023-01-15T09:14:58.841Z,3.67
2023-01-15T09:17:17.611Z,5.05
2023-01-15T09:19:44.532Z,4.10
2023-01-15T09:22:11.532Z,2.13
2023-01-15T09:24:38.500Z,5.50
2023-01-15T09:27:05.597Z,6.03
2023-01-15T09:29:32.533Z,2.35
2023-01-15T09:31:59.651Z,4.32
2023-01-15T09:34:26.558Z,5.57
2023-01-15T09:36:53.522Z,1.70
2023-01-15T09:39:20.582Z,3.95
2023-01-15T09:42:07.932Z,3.33
2023-01-15T09:44:55.888Z,4.78
2023-01-15T09:47:54.846Z,3.58
2023-01-15T09:50:31.180Z,3.15
2023-01-15T09:53:11.015Z,6.50
2023-01-15T09:55:46.680Z,4.95
2023-01-15T09:58:16.929Z,6.72
2023-01-15T10:00:49.335Z,4.05
2023-01-15T10:03:42.782Z,4.03
2023-01-15T10:06:09.706Z,4.22
2023-01-15T10:08:42.720Z,1.98
2023-01-15T10:11:47.933Z,5.95
2023-01-15T10:14:31.345Z,2.17
2023-01-15T10:16:58.575Z,3.13
2023-01-15T10:19:31.851Z,3.58
2023-01-15T10:22:26.975Z,2.05
2023-01-15T10:24:58.287Z,4.35
2023-01-15T10:27:30.275Z,5.03
2023-01-15T10:30:23.312Z,1.70
2023-01-15T10:33:03.385Z,5.53
2023-01-15T10:35:40.997Z,5.20
2023-01-15T10:38:16.793Z,4.60
2023-01-15T10:40:43.647Z,3.13
2023-01-15T10:43:35.214Z,2.58
2023-01-15T10:46:10.325Z,3.65
2023-01-15T10:48:42.573Z,4.70
2023-01-15T10:51:26.860Z,2.88
2023-01-15T10:54:19.187Z,4.43
2023-01-15T10:56:58.342Z,4.20
2023-01-15T10:59:56.086Z,7.65
2023-01-15T11:02:38.148Z,3.00
2023-01-15T11:05:05.942Z,4.03
2023-01-15T11:08:10.403Z,1.05
2023-01-15T11:10:35.271Z,1.85
2023-01-15T11:13:42.962Z,2.30
2023-01-15T11:16:44.396Z,2.08
2023-01-15T11:19:37.233Z,1.63
2023-01-15T11:22:11.689Z,5.05
2023-01-15T11:24:49.780Z,4.38
2023-01-15T11:27:20.300Z,3.22
2023-01-15T11:29:52.735Z,2.08
2023-01-15T11:32:30.768Z,2.92
2023-01-15T11:35:00.002Z,4.97
2023-01-15T11:37:28.039Z,4.90
2023-01-15T11:40:07.257Z,1.17
2023-01-15T11:42:56.106Z,3.75
2023-01-15T11:45:43.623Z,4.32
2023-01-15T11:48:41.146Z,1.52
2023-01-15T11:51:09.253Z,2.05
2023-01-15T11:53:46.646Z,1.80
2023-01-15T11:56:20.619Z,3.70
2023-01-15T11:58:51.353Z,1.75
2023-01-15T12:01:28.453Z,1.92
2023-01-15T12:03:56.460Z,0.95
2023-01-15T12:06:26.930Z,0.35
2023-01-15T12:09:04.264Z,0.90
2023-01-15T12:11:47.120Z,3.83
2023-01-15T12:14:35.349Z,1.92
2023-01-15T12:17:02.216Z,1.77
2023-01-15T12:19:46.035Z,1.63
2023-01-15T12:22:29.276Z,1.83
2023-01-15T12:24:56.607Z,0.70
2023-01-15T12:27:38.635Z,1.33
2023-01-15T12:30:26.989Z,0.30
2023-01-15T12:33:10.265Z,0.68
2023-01-15T12:35:43.471Z,0.88
2023-01-15T12:38:20.911Z,0.93
2023-01-15T12:41:02.113Z,1.13
2023-01-15T12:43:47.833Z,1.85
2023-01-15T12:46:19.184Z,2.45
2023-01-15T12:49:13.233Z,1.10
2023-01-15T12:52:14.507Z,0.80
2023-01-15T12:54:51.869Z,0.20
2023-01-15T12:57:31.445Z,0.40
2023-01-15T13:00:04.209Z,0.60
2023-01-15T13:02:52.256Z,1.27
2023-01-15T13:05:27.626Z,1.10
2023-01-15T13:08:06.619Z,0.82
2023-01-15T13:10:41.381Z,1.20
2023-01-15T13:13:24.717Z,1.52
2023-01-15T13:16:01.038Z,0.63
2023-01-15T13:21:18.042Z,3.20
2023-01-15T13:24:10.264Z,1.25
2023-01-15T13:27:16.467Z,0.60
2023-01-15T13:30:03.022Z,0.50
2023-01-15T13:32:44.136Z,0.65
2023-01-15T13:35:29.947Z,0.77
2023-01-15T13:38:00.334Z,1.15
2023-01-15T13:40:40.043Z,3.05
2023-01-15T13:43:09.887Z,0.93
2023-01-15T13:45:47.821Z,2.97
2023-01-15T13:48:24.167Z,3.03
2023-01-15T13:50:57.905Z,1.48
2023-01-15T13:53:58.185Z,5.28
2023-01-15T13:56:33.598Z,1.27
2023-01-15T13:59:06.293Z,2.73
2023-01-15T14:01:37.619Z,1.10
2023-01-15T14:04:14.348Z,2.35
2023-01-15T14:06:49.904Z,0.68
2023-01-15T14:09:23.109Z,1.10
2023-01-15T14:12:08.089Z,1.88
2023-01-15T14:14:55.976Z,2.55
2023-01-15T14:17:41.775Z,1.25
2023-01-15T14:20:28.209Z,3.70
2023-01-15T14:23:06.287Z,2.65
2023-01-15T14:26:00.652Z,0.73
2023-01-15T14:28:51.883Z,1.10
2023-01-15T14:31:21.622Z,2.88
2023-01-15T14:33:57.730Z,2.30
2023-01-15T14:36:29.562Z,2.10
2023-01-15T14:39:00.193Z,1.90
2023-01-15T14:41:59.484Z,4.28
2023-01-15T14:44:31.722Z,3.40
2023-01-15T14:47:06.763Z,1.45
2023-01-15T14:49:50.087Z,1.42
2023-01-15T14:52:23.604Z,1.25
2023-01-15T14:54:51.242Z,3.00
2023-01-15T14:57:18.672Z,2.60
2023-01-15T14:59:53.549Z,2.22
2023-01-15T15:02:31.608Z,1.00
2023-01-15T15:05:00.527Z,1.00
2023-01-15T15:07:32.642Z,1.13
2023-01-15T15:10:03.453Z,1.88
2023-01-15T15:12:56.900Z,2.17
2023-01-15T15:15:41.206Z,8.90
2023-01-15T15:18:29.192Z,2.33
2023-01-15T15:20:59.224Z,0.52
2023-01-15T15:23:38.209Z,1.10
2023-01-15T15:26:19.000Z,3.00
2023-01-15T15:29:10.089Z,1.08
2023-01-15T15:31:57.428Z,2.10
2023-01-15T15:34:40.280Z,1.30
2023-01-15T15:37:14.459Z,2.03
2023-01-15T15:39:45.873Z,5.43
2023-01-15T15:42:45.359Z,2.33
2023-01-15T15:45:50.480Z,3.70
2023-01-15T15:48:42.820Z,1.63
2023-01-15T15:51:37.339Z,3.35
2023-01-15T15:54:16.570Z,1.55
2023-01-15T15:56:48.350Z,0.50
2023-01-15T15:59:28.852Z,7.60
2023-01-15T16:01:58.040Z,8.07
2023-01-15T16:04:25.327Z,4.63
2023-01-15T16:06:52.322Z,2.65
2023-01-15T16:09:24.039Z,3.72
2023-01-15T16:11:54.533Z,4.68
2023-01-15T16:14:22.825Z,5.43
2023-01-15T16:16:51.145Z,1.48
2023-01-15T16:19:22.844Z,1.60
2023-01-15T16:21:51.468Z,1.60
2023-01-15T16:24:27.574Z,1.17
2023-01-15T16:27:16.320Z,2.55
2023-01-15T16:29:50.674Z,2.45
2023-01-15T16:32:28.458Z,2.15
2023-01-15T16:35:23.332Z,1.98
2023-01-15T16:37:56.595Z,2.67
2023-01-15T16:40:29.447Z,2.92
2023-01-15T16:43:15.363Z,4.68
2023-01-15T16:46:07.270Z,3.15
2023-01-15T16:48:39.755Z,3.72
2023-01-15T16:51:31.425Z,3.83
2023-01-15T16:54:44.626Z,5.13
2023-01-15T16:57:28.354Z,1.77
2023-01-15T16:59:58.448Z,2.05
2023-01-15T17:02:29.991Z,2.10
2023-01-15T17:04:57.347Z,3.15
2023-01-15T17:07:37.349Z,3.25
2023-01-15T17:10:17.592Z,4.85
2023-01-15T17:12:44.844Z,3.47
2023-01-15T17:15:14.563Z,4.30
2023-01-15T17:17:42.931Z,1.52
2023-01-15T17:20:12.988Z,1.25
2023-01-15T17:22:43.164Z,2.33
2023-01-15T17:25:42.383Z,2.53
2023-01-15T17:28:12.629Z,2.38
2023-01-15T17:30:39.627Z,4.72
2023-01-15T17:33:08.326Z,5.18
2023-01-15T17:35:37.812Z,10.35
2023-01-15T17:38:06.859Z,11.20
2023-01-15T17:40:33.951Z,4.90
2023-01-15T17:43:01.132Z,7.40
2023-01-15T17:45:30.060Z,10.15
2023-01-15T17:47:57.087Z,4.20
2023-01-15T17:50:24.655Z,2.17
2023-01-15T17:52:52.464Z,4.00
2023-01-15T17:55:41.409Z,2.92
2023-01-15T17:58:34.335Z,2.67
2023-01-15T18:01:24.305Z,0.95
2023-01-15T18:04:12.385Z,1.67
2023-01-15T18:06:43.303Z,3.35
2023-01-15T18:09:10.362Z,3.65
2023-01-15T18:11:37.258Z,1.85
2023-01-15T18:14:04.543Z,1.92
2023-01-15T18:16:31.712Z,4.72
2023-01-15T18:18:58.753Z,2.40
2023-01-15T18:21:25.792Z,3.20
2023-01-15T18:23:52.818Z,3.33
2023-01-15T18:26:20.150Z,3.45
2023-01-15T18:28:47.565Z,4.07
2023-01-15T18:31:14.658Z,7.03
2023-01-15T18:33:42.035Z,5.93
2023-01-15T18:36:37.814Z,4.43
2023-01-15T18:39:07.504Z,2.67
2023-01-15T18:41:36.039Z,3.75
2023-01-15T18:44:32.006Z,3.03
2023-01-15T18:47:01.676Z,12.02
2023-01-15T18:49:29.463Z,4.88
2023-01-15T18:52:15.657Z,4.35
2023-01-15T18:54:42.785Z,3.85
2023-01-15T18:57:10.249Z,3.22
2023-01-15T18:59:37.405Z,5.82
2023-01-15T19:02:05.786Z,10.85
2023-01-15T19:04:33.338Z,3.80
2023-01-15T19:07:00.295Z,3.53
2023-01-15T19:09:27.242Z,11.23
2023-01-15T19:11:54.685Z,22.63
2023-01-15T19:14:40.733Z,24.08
2023-01-15T19:17:33.005Z,25.40
2023-01-15T19:20:00.037Z,32.42
2023-01-15T19:22:45.882Z,4.80
2023-01-15T19:25:13.173Z,22.37
2023-01-15T19:27:40.086Z,14.73
2023-01-15T19:30:08.160Z,7.05
2023-01-15T19:32:35.405Z,7.80
2023-01-15T19:35:02.975Z,3.70
2023-01-15T19:37:31.638Z,3.47
2023-01-15T19:39:58.848Z,2.53
2023-01-15T19:42:44.640Z,2.47
2023-01-15T19:45:30.367Z,1.23
2023-01-15T19:48:17.992Z,3.67
2023-01-15T19:50:46.658Z,3.88
2023-01-15T19:53:14.742Z,2.47
2023-01-15T19:55:45.401Z,2.47
2023-01-15T19:58:15.052Z,2.08
2023-01-15T20:00:43.994Z,5.18
2023-01-15T20:03:12.304Z,3.22
2023-01-15T20:05:41.430Z,4.13
2023-01-15T20:08:13.927Z,2.22
2023-01-15T20:10:43.181Z,1.98
2023-01-15T20:13:34.617Z,1.52
2023-01-15T20:16:11.285Z,2.30
2023-01-15T20:18:38.457Z,2.22
2023-01-15T20:21:05.792Z,1.17
2023-01-15T20:23:33.183Z,1.77
2023-01-15T20:26:05.010Z,0.68
2023-01-15T20:28:32.201Z,0.38
2023-01-15T20:31:00.134Z,1.00
2023-01-15T20:33:27.140Z,1.30
2023-01-15T20:35:54.762Z,1.50
2023-01-15T20:38:24.217Z,2.67
2023-01-15T20:40:52.253Z,2.05
2023-01-15T20:43:38.876Z,0.40
2023-01-15T20:48:54.916Z,1.15
2023-01-15T20:51:22.134Z,1.58
2023-01-15T20:53:50.352Z,0.40
2023-01-15T20:56:18.961Z,1.35
2023-01-15T20:58:46.117Z,2.03
2023-01-15T21:01:14.258Z,1.40
2023-01-15T21:03:41.453Z,0.40
2023-01-15T21:06:09.488Z,1.85
2023-01-15T21:08:36.860Z,0.50
2023-01-15T21:11:04.005Z,1.38
2023-01-15T21:13:31.363Z,0.88
2023-01-15T21:16:01.579Z,0.73
2023-01-15T21:18:30.543Z,2.85
2023-01-15T21:20:57.549Z,4.35
2023-01-15T21:23:25.068Z,2.25
2023-01-15T21:25:52.110Z,2.45
2023-01-15T21:28:19.128Z,1.38
2023-01-15T21:30:46.124Z,1.33
2023-01-15T21:33:13.958Z,0.63
2023-01-15T21:35:41.519Z,2.38
2023-01-15T21:38:09.110Z,0.85
2023-01-15T21:40:37.947Z,1.25
2023-01-15T21:43:24.584Z,1.92
2023-01-15T21:48:19.241Z,1.08
2023-01-15T21:50:46.321Z,0.77
2023-01-15T21:53:13.648Z,3.95
2023-01-15T21:55:47.974Z,2.45
2023-01-15T21:58:15.051Z,0.50
2023-01-15T22:00:43.051Z,0.93
2023-01-15T22:03:12.169Z,0.80
2023-01-15T22:05:39.196Z,0.63
2023-01-15T22:08:06.194Z,0.28
2023-01-15T22:10:34.899Z,0.20
2023-01-15T22:13:01.901Z,0.38
2023-01-15T22:15:28.885Z,1.30
2023-01-15T22:17:56.201Z,0.08
2023-01-15T22:20:23.250Z,0.90
2023-01-15T22:22:50.317Z,0.75
2023-01-15T22:25:17.537Z,1.48
2023-01-15T22:27:44.608Z,0.30
2023-01-15T22:30:13.907Z,0.65
2023-01-15T22:32:41.061Z,0.38
2023-01-15T22:35:08.882Z,0.60
2023-01-15T22:37:35.890Z,0.70
2023-01-15T22:40:04.567Z,2.00
2023-01-15T22:42:33.166Z,1.52
2023-01-15T22:45:00.939Z,1.75
2023-01-15T22:47:29.619Z,1.75
2023-01-15T22:49:57.237Z,1.73
2023-01-15T22:52:25.957Z,1.23
2023-01-15T22:54:53.534Z,1.17
2023-01-15T22:57:22.713Z,5.47
2023-01-15T22:59:52.910Z,1.17
2023-01-15T23:02:39.821Z,1.38
2023-01-15T23:05:07.862Z,1.45
2023-01-15T23:07:40.658Z,0.80
2023-01-15T23:10:10.567Z,2.33
2023-01-15T23:12:39.414Z,0.85
2023-01-15T23:15:09.229Z,3.60
2023-01-15T23:17:36.288Z,2.05
2023-01-15T23:20:03.393Z,1.63
2023-01-15T23:22:30.664Z,0.73
2023-01-15T23:24:58.006Z,1.98
2023-01-15T23:27:25.092Z,2.28
2023-01-15T23:29:52.138Z,1.88
2023-01-15T23:32:19.173Z,1.80
2023-01-15T23:34:46.246Z,4.35
2023-01-15T23:37:13.282Z,3.75
2023-01-15T23:39:40.209Z,3.83
2023-01-15T23:42:27.308Z,2.10
2023-01-15T23:45:12.708Z,4.88
2023-01-15T23:47:39.656Z,3.72
2023-01-15T23:50:06.779Z,1.35
2023-01-15T23:52:34.032Z,0.98
2023-01-15T23:55:04.185Z,1.75
2023-01-15T23:57:31.182Z,1.63
2023-01-15T23:59:58.064Z,1.13
